Time;durP1;ratioP1;P1;durP2;ratioP2;P2;SDS_P1;SDS_P2;PMS_P1;PMS_P2;Temp;Humidity;BMP_temperature;BMP_pressure;BME280_temperature;BME280_humidity;BME280_pressure;Samples;Min_cycle;Max_cycle;Signal;HPM_P1;HPM_P2
2023/10/19 00:00:57;;;;;;;27.27;14.77;;;8.30;99.90;;;;;;5032424;28;20052;-89
2023/10/19 00:03:24;;;;;;;25.35;14.98;;;8.30;99.90;;;;;;5034231;28;20088;-88
2023/10/19 00:05:50;;;;;;;28.95;16.42;;;8.20;99.90;;;;;;5032794;28;20099;-86
2023/10/19 00:08:23;;;;;;;27.30;15.93;;;8.30;99.90;;;;;;5033009;28;20041;-90
2023/10/19 00:11:02;;;;;;;28.77;15.13;;;8.30;99.90;;;;;;5034095;28;20064;-86
2023/10/19 00:13:29;;;;;;;21.55;13.68;;;8.30;99.90;;;;;;5032659;28;20041;-85
2023/10/19 00:15:57;;;;;;;26.75;16.35;;;8.30;99.90;;;;;;5032736;28;20055;-87
2023/10/19 00:18:24;;;;;;;31.63;16.63;;;8.20;99.90;;;;;;5032645;28;20493;-86
2023/10/19 00:21:11;;;;;;;27.33;17.50;;;8.20;99.90;;;;;;5016433;28;20076;-87
2023/10/19 00:23:38;;;;;;;25.60;15.82;;;8.20;99.90;;;;;;5032555;28;20080;-88
2023/10/19 00:26:08;;;;;;;26.08;17.10;;;8.20;99.90;;;;;;5032470;28;20045;-91
2023/10/19 00:28:38;;;;;;;26.67;15.50;;;8.20;99.90;;;;;;5032551;28;20084;-86
2023/10/19 00:31:08;;;;;;;27.42;17.02;;;8.20;99.90;;;;;;5032866;28;20493;-87
2023/10/19 00:33:38;;;;;;;31.77;16.98;;;8.20;99.90;;;;;;5033683;28;20042;-87
2023/10/19 00:36:08;;;;;;;28.75;16.42;;;8.20;99.90;;;;;;5032451;28;20060;-87
2023/10/19 00:43:44;;;;;;;25.25;15.55;;;8.20;99.90;;;;;;5033608;28;20048;-86
2023/10/19 00:46:23;;;;;;;27.95;16.95;;;8.20;99.90;;;;;;5032179;28;20470;-87
2023/10/19 00:49:01;;;;;;;31.13;18.30;;;8.20;99.90;;;;;;5032212;28;20128;-86
2023/10/19 00:54:24;;;;;;;30.95;18.58;;;8.10;99.90;;;;;;5032587;28;20371;-88
2023/10/19 00:56:51;;;;;;;30.05;17.80;;;8.10;99.90;;;;;;5032346;28;20046;-88
2023/10/19 00:59:29;;;;;;;28.48;18.10;;;8.10;99.90;;;;;;5032172;28;20120;-87
2023/10/19 01:02:04;;;;;;;32.58;18.88;;;8.10;99.90;;;;;;5033483;28;20049;-89
2023/10/19 01:04:34;;;;;;;32.70;19.38;;;8.10;99.90;;;;;;5033457;28;20045;-86
2023/10/19 01:07:15;;;;;;;34.00;19.45;;;8.20;99.90;;;;;;5034160;28;20049;-86
2023/10/19 01:09:44;;;;;;;32.90;18.10;;;8.10;99.90;;;;;;5032328;28;20477;-88
2023/10/19 01:15:09;;;;;;;33.60;18.13;;;8.10;99.90;;;;;;5036990;28;20060;-86
2023/10/19 01:17:40;;;;;;;32.90;19.77;;;8.10;99.90;;;;;;5037146;28;20057;-86
2023/10/19 01:20:33;;;;;;;31.88;17.17;;;8.10;99.90;;;;;;5036107;28;20103;-87
2023/10/19 01:28:28;;;;;;;31.15;18.38;;;8.10;99.90;;;;;;5035740;28;20049;-87
2023/10/19 01:30:54;;;;;;;33.40;19.13;;;8.10;99.90;;;;;;5036087;28;20053;-89
2023/10/19 01:33:22;;;;;;;30.38;19.08;;;8.20;99.90;;;;;;5035516;28;20049;-84
2023/10/19 01:38:33;;;;;;;31.58;18.55;;;8.20;99.90;;;;;;5035507;28;20059;-86
2023/10/19 01:41:00;;;;;;;32.65;18.92;;;8.20;99.90;;;;;;5037031;28;20046;-85
2023/10/19 01:43:31;;;;;;;35.22;21.23;;;8.10;99.90;;;;;;5035457;28;20469;-84
2023/10/19 01:46:13;;;;;;;37.28;20.50;;;8.10;99.90;;;;;;5035416;28;20471;-86
2023/10/19 01:48:45;;;;;;;38.00;20.98;;;8.20;99.90;;;;;;5035262;28;20049;-85
2023/10/19 01:51:12;;;;;;;33.50;17.55;;;8.20;99.90;;;;;;5035299;28;20045;-85
2023/10/19 01:53:44;;;;;;;40.67;21.58;;;8.10;99.90;;;;;;5036560;28;20053;-85
2023/10/19 01:56:14;;;;;;;38.70;22.70;;;8.10;99.90;;;;;;5036658;28;20075;-84
2023/10/19 01:58:41;;;;;;;37.47;21.05;;;8.10;99.90;;;;;;5035286;28;20298;-86
2023/10/19 02:01:14;;;;;;;46.50;21.60;;;8.10;99.90;;;;;;5035245;28;20427;-86
2023/10/19 02:03:43;;;;;;;41.38;22.55;;;8.10;99.90;;;;;;5035209;28;20405;-86
2023/10/19 02:06:56;;;;;;;41.47;23.00;;;8.10;99.90;;;;;;5036141;28;20037;-86
2023/10/19 02:09:21;;;;;;;38.55;23.08;;;8.10;99.90;;;;;;5021122;28;20051;-87
2023/10/19 02:11:48;;;;;;;37.13;21.98;;;8.10;99.90;;;;;;5036113;28;20052;-87
2023/10/19 02:14:21;;;;;;;34.22;20.15;;;8.20;99.90;;;;;;5034764;28;20041;-85
2023/10/19 02:16:52;;;;;;;31.25;17.20;;;8.20;99.90;;;;;;5034835;28;20057;-87
2023/10/19 02:19:22;;;;;;;30.13;19.10;;;8.20;99.90;;;;;;5034903;28;20041;-86
2023/10/19 02:21:56;;;;;;;33.15;19.05;;;8.20;99.90;;;;;;5034726;28;20049;-85
2023/10/19 02:24:22;;;;;;;30.80;19.13;;;8.20;99.90;;;;;;5034498;28;20059;-86
2023/10/19 02:26:51;;;;;;;34.05;20.85;;;8.20;99.90;;;;;;5034626;28;20054;-84
2023/10/19 02:29:18;;;;;;;31.27;18.80;;;8.10;99.90;;;;;;5034705;28;20048;-85
2023/10/19 02:31:44;;;;;;;30.52;19.15;;;8.10;99.90;;;;;;5034936;28;20056;-84
2023/10/19 02:34:15;;;;;;;30.80;19.77;;;8.10;99.90;;;;;;5034297;28;20041;-86
2023/10/19 02:36:42;;;;;;;30.25;19.08;;;8.10;99.90;;;;;;5034405;28;20103;-85
2023/10/19 02:39:10;;;;;;;29.90;17.05;;;8.10;99.90;;;;;;5034292;28;20085;-85
2023/10/19 02:41:44;;;;;;;24.73;16.58;;;8.10;99.90;;;;;;5034692;28;20057;-85
2023/10/19 02:46:44;;;;;;;26.50;18.48;;;8.10;99.90;;;;;;5034402;28;20056;-84
2023/10/19 02:49:13;;;;;;;28.65;18.55;;;8.10;99.90;;;;;;5034140;28;20046;-84
2023/10/19 02:51:40;;;;;;;26.63;15.57;;;8.10;99.90;;;;;;5034414;28;20049;-87
2023/10/19 02:54:07;;;;;;;24.77;15.98;;;8.10;99.90;;;;;;5034089;28;20056;-84
2023/10/19 02:56:38;;;;;;;25.75;16.38;;;8.10;99.90;;;;;;5034457;28;20126;-83
2023/10/19 02:59:05;;;;;;;25.90;17.20;;;8.20;99.90;;;;;;5035539;28;20485;-85
2023/10/19 03:01:34;;;;;;;24.30;16.50;;;8.20;99.90;;;;;;5034357;28;20092;-84
2023/10/19 03:04:00;;;;;;;24.27;16.08;;;8.20;99.90;;;;;;5033938;28;20045;-84
2023/10/19 03:06:33;;;;;;;23.65;15.32;;;8.20;99.90;;;;;;5035115;28;20052;-83
2023/10/19 03:09:04;;;;;;;25.35;15.25;;;8.10;99.90;;;;;;5034280;28;20049;-83
2023/10/19 03:11:32;;;;;;;23.95;15.75;;;8.10;99.90;;;;;;5034003;28;20049;-84
2023/10/19 03:13:58;;;;;;;23.67;14.20;;;8.10;99.90;;;;;;5033876;28;20366;-84
2023/10/19 03:16:24;;;;;;;25.05;14.65;;;8.10;99.90;;;;;;5033527;28;20497;-81
2023/10/19 03:18:50;;;;;;;20.38;13.40;;;8.10;99.90;;;;;;5033645;28;20136;-84
2023/10/19 03:21:23;;;;;;;19.65;13.38;;;8.10;99.90;;;;;;5033441;28;20116;-84
2023/10/19 03:23:49;;;;;;;19.33;12.13;;;8.10;99.90;;;;;;5033931;28;20099;-87
2023/10/19 03:28:47;;;;;;;17.10;12.18;;;8.10;99.90;;;;;;5033573;28;20087;-86
2023/10/19 03:31:17;;;;;;;19.05;12.57;;;8.10;99.90;;;;;;5033444;28;20081;-85
2023/10/19 03:33:44;;;;;;;18.38;12.73;;;8.10;99.90;;;;;;5034400;28;20037;-84
2023/10/19 03:36:13;;;;;;;19.70;12.57;;;8.00;99.90;;;;;;5033001;28;20084;-85
2023/10/19 03:38:40;;;;;;;18.52;12.05;;;8.10;99.90;;;;;;5033659;28;20405;-85
2023/10/19 03:41:07;;;;;;;20.00;11.52;;;8.10;99.90;;;;;;5033552;28;20191;-84
2023/10/19 03:43:34;;;;;;;18.48;11.98;;;8.10;99.90;;;;;;5033712;28;20053;-85
2023/10/19 03:46:06;;;;;;;18.27;11.68;;;8.10;99.90;;;;;;5033181;28;20041;-86
2023/10/19 03:48:37;;;;;;;19.45;12.52;;;8.10;99.90;;;;;;5033305;28;20045;-85
2023/10/19 03:51:04;;;;;;;17.48;11.65;;;8.00;99.90;;;;;;5033283;28;20048;-85
2023/10/19 03:53:31;;;;;;;16.33;10.55;;;8.10;99.90;;;;;;5034101;28;20449;-86
2023/10/19 03:55:57;;;;;;;16.35;11.48;;;8.10;99.90;;;;;;5032996;28;20092;-84
2023/10/19 03:58:23;;;;;;;16.58;11.52;;;8.10;99.90;;;;;;5032939;28;20041;-84
2023/10/19 04:00:49;;;;;;;18.80;11.93;;;8.10;99.90;;;;;;5032987;28;20041;-85
2023/10/19 04:03:17;;;;;;;16.27;11.23;;;8.10;99.90;;;;;;5032922;28;20052;-85
2023/10/19 04:05:46;;;;;;;15.07;10.40;;;8.10;99.90;;;;;;5034019;28;20121;-86
2023/10/19 04:08:14;;;;;;;17.73;11.25;;;8.10;99.90;;;;;;5032955;28;20044;-86
2023/10/19 04:10:44;;;;;;;16.17;11.15;;;8.00;99.90;;;;;;5032890;28;20080;-86
2023/10/19 04:13:11;;;;;;;16.60;11.45;;;8.00;99.90;;;;;;5032593;28;20120;-84
2023/10/19 04:15:37;;;;;;;16.65;10.27;;;8.10;99.90;;;;;;5032568;28;20080;-84
2023/10/19 04:18:11;;;;;;;15.35;10.75;;;8.10;99.90;;;;;;5033987;28;20077;-84
2023/10/19 04:23:16;;;;;;;14.55;10.30;;;8.10;99.90;;;;;;5032502;28;20056;-85
2023/10/19 04:25:42;;;;;;;14.73;9.40;;;8.00;99.90;;;;;;5032417;28;20045;-84
2023/10/19 04:28:09;;;;;;;14.10;10.00;;;8.10;99.90;;;;;;5032519;28;20048;-84
2023/10/19 04:30:36;;;;;;;15.55;9.68;;;8.10;99.90;;;;;;5033780;28;20049;-84
2023/10/19 04:33:02;;;;;;;13.80;8.85;;;8.00;99.90;;;;;;5032480;28;20087;-88
2023/10/19 04:35:34;;;;;;;12.48;9.07;;;8.00;99.90;;;;;;5032803;28;20076;-85
2023/10/19 04:37:59;;;;;;;12.73;8.55;;;8.10;99.90;;;;;;5032657;28;20053;-85
2023/10/19 04:40:26;;;;;;;11.82;8.32;;;8.00;99.90;;;;;;5032593;28;20061;-85
2023/10/19 04:42:53;;;;;;;13.10;7.88;;;8.10;99.90;;;;;;5032412;28;20042;-83
2023/10/19 04:45:19;;;;;;;13.02;8.20;;;8.10;99.90;;;;;;5032295;28;20065;-86
2023/10/19 04:47:46;;;;;;;10.73;7.30;;;8.10;99.90;;;;;;5032448;28;20057;-85
2023/10/19 04:50:12;;;;;;;10.43;6.45;;;8.20;99.90;;;;;;5032454;28;20508;-85
2023/10/19 04:52:38;;;;;;;10.30;7.30;;;8.20;99.90;;;;;;5032476;28;20183;-88
2023/10/19 04:55:05;;;;;;;10.95;7.28;;;8.20;99.90;;;;;;5032447;28;20048;-86
2023/10/19 04:57:31;;;;;;;10.90;7.45;;;8.20;99.90;;;;;;5032269;28;20041;-86
2023/10/19 04:59:57;;;;;;;10.00;7.20;;;8.10;99.90;;;;;;5032565;28;20041;-84
2023/10/19 05:02:23;;;;;;;11.40;7.53;;;8.10;99.90;;;;;;5032479;28;20037;-87
2023/10/19 05:04:48;;;;;;;10.32;7.53;;;8.10;99.90;;;;;;5032293;28;20481;-85
2023/10/19 05:07:17;;;;;;;11.77;6.82;;;8.20;99.90;;;;;;5032314;28;20053;-87
2023/10/19 05:09:43;;;;;;;10.20;6.88;;;8.20;99.90;;;;;;5032144;28;20033;-84
2023/10/19 05:12:09;;;;;;;10.38;6.85;;;8.20;99.90;;;;;;5032194;28;20057;-86
2023/10/19 05:14:36;;;;;;;11.55;7.40;;;8.10;99.90;;;;;;5031980;28;20033;-85
2023/10/19 05:17:05;;;;;;;10.35;6.70;;;8.10;99.90;;;;;;5032246;28;20080;-86
2023/10/19 05:19:34;;;;;;;11.25;7.72;;;8.10;99.90;;;;;;5033219;28;20559;-83
2023/10/19 05:22:01;;;;;;;11.05;7.00;;;8.20;99.90;;;;;;5031970;28;20401;-84
2023/10/19 05:24:30;;;;;;;11.30;6.90;;;8.20;99.90;;;;;;5031966;28;20045;-84
2023/10/19 05:26:56;;;;;;;10.07;6.80;;;8.20;99.90;;;;;;5032289;28;20068;-85
2023/10/19 05:29:23;;;;;;;11.02;6.78;;;8.30;99.90;;;;;;5031970;28;20049;-87
2023/10/19 05:31:53;;;;;;;9.40;6.25;;;8.30;99.90;;;;;;5032059;28;20057;-85
2023/10/19 05:34:22;;;;;;;9.88;6.82;;;8.30;99.90;;;;;;5031852;28;20046;-83
2023/10/19 05:36:51;;;;;;;9.05;6.30;;;8.30;99.90;;;;;;5032060;28;20056;-83
2023/10/19 05:39:20;;;;;;;9.45;6.28;;;8.30;99.90;;;;;;5031886;28;20045;-84
2023/10/19 05:41:46;;;;;;;8.68;5.40;;;8.30;99.90;;;;;;5031968;28;20370;-85
2023/10/19 05:44:12;;;;;;;9.60;6.32;;;8.30;99.90;;;;;;5031635;28;20076;-85
2023/10/19 05:46:40;;;;;;;6.50;4.43;;;8.20;99.90;;;;;;5031615;28;20081;-85
2023/10/19 05:49:06;;;;;;;8.43;5.72;;;8.30;99.90;;;;;;5031962;28;20045;-84
2023/10/19 05:51:32;;;;;;;8.43;5.35;;;8.30;99.90;;;;;;5031783;28;20512;-84
2023/10/19 05:54:01;;;;;;;8.27;5.57;;;8.30;99.90;;;;;;5032995;28;20041;-84
2023/10/19 05:56:31;;;;;;;7.93;5.63;;;8.30;99.90;;;;;;5032793;28;20045;-83
2023/10/19 05:58:57;;;;;;;9.02;5.25;;;8.30;99.90;;;;;;5034672;28;20057;-85
2023/10/19 06:01:23;;;;;;;8.15;4.78;;;8.20;99.90;;;;;;5024419;28;20077;-83
2023/10/19 06:03:50;;;;;;;8.60;5.22;;;8.30;99.90;;;;;;5015392;28;20050;-84
2023/10/19 06:06:16;;;;;;;7.28;5.10;;;8.30;99.90;;;;;;5015139;28;20068;-83
2023/10/19 06:08:44;;;;;;;8.18;5.53;;;8.30;99.90;;;;;;5015303;28;20481;-84
2023/10/19 06:11:10;;;;;;;9.00;5.00;;;8.30;99.90;;;;;;5015090;28;20103;-84
2023/10/19 06:13:36;;;;;;;7.38;4.82;;;8.30;99.90;;;;;;5015109;28;20132;-83
2023/10/19 06:16:02;;;;;;;6.90;5.03;;;8.30;99.90;;;;;;5014918;28;20503;-85
2023/10/19 06:18:29;;;;;;;7.22;4.97;;;8.30;99.90;;;;;;5014963;28;20054;-85
2023/10/19 06:20:55;;;;;;;7.78;5.15;;;8.30;99.90;;;;;;5014915;28;20049;-85
2023/10/19 06:23:23;;;;;;;6.25;4.35;;;8.20;99.90;;;;;;5031615;28;20046;-83
2023/10/19 06:25:51;;;;;;;6.68;4.32;;;8.30;99.90;;;;;;5014582;28;20046;-83
2023/10/19 06:28:17;;;;;;;7.05;4.93;;;8.30;99.90;;;;;;5014837;28;20071;-85
2023/10/19 06:30:42;;;;;;;6.63;4.53;;;8.30;99.90;;;;;;5013940;28;20054;-87
2023/10/19 06:33:08;;;;;;;6.18;3.70;;;8.30;99.90;;;;;;5014024;28;20516;-85
2023/10/19 06:35:34;;;;;;;6.13;3.65;;;8.30;99.90;;;;;;5014539;28;20042;-85
2023/10/19 06:38:00;;;;;;;5.40;3.75;;;8.30;99.90;;;;;;5015979;28;20042;-84
2023/10/19 06:40:27;;;;;;;5.50;3.38;;;8.30;99.90;;;;;;5015578;28;20049;-83
2023/10/19 06:42:57;;;;;;;4.53;3.00;;;8.20;99.90;;;;;;5025401;28;20042;-83
2023/10/19 06:45:25;;;;;;;5.80;3.75;;;8.30;99.90;;;;;;5015389;28;20129;-84
2023/10/19 06:47:51;;;;;;;5.72;3.38;;;8.30;99.90;;;;;;5015667;28;20112;-84
2023/10/19 06:50:20;;;;;;;6.22;3.50;;;8.30;99.90;;;;;;5014163;28;20042;-82
2023/10/19 06:52:49;;;;;;;5.63;3.88;;;8.30;99.90;;;;;;5015506;28;20061;-84
2023/10/19 06:55:19;;;;;;;5.32;3.45;;;8.30;99.90;;;;;;5014336;28;20050;-83
2023/10/19 06:57:47;;;;;;;7.47;3.92;;;8.30;99.90;;;;;;5015337;28;20482;-84
2023/10/19 07:00:21;;;;;;;5.63;4.13;;;8.40;99.90;;;;;;5014181;28;20490;-86
2023/10/19 07:02:49;;;;;;;5.78;4.05;;;8.30;99.90;;;;;;5013858;28;20046;-84
2023/10/19 07:05:18;;;;;;;5.93;4.05;;;8.30;99.90;;;;;;5013690;28;20548;-85
2023/10/19 07:07:44;;;;;;;6.13;4.13;;;8.30;99.90;;;;;;5013977;28;20050;-85
2023/10/19 07:10:14;;;;;;;6.25;4.47;;;8.30;99.90;;;;;;5013899;28;20046;-87
2023/10/19 07:12:43;;;;;;;7.85;5.20;;;8.40;99.90;;;;;;5013646;28;20042;-85
2023/10/19 07:15:19;;;;;;;6.93;5.18;;;8.30;99.90;;;;;;5013479;28;20050;-85
2023/10/19 07:17:47;;;;;;;6.60;4.68;;;8.30;99.90;;;;;;5013577;28;20418;-86
2023/10/19 07:20:28;;;;;;;7.13;5.25;;;8.40;99.90;;;;;;5013798;28;20058;-85
2023/10/19 07:25:55;;;;;;;7.53;5.35;;;8.30;99.90;;;;;;5013421;28;20132;-85
2023/10/19 07:28:22;;;;;;;6.35;4.78;;;8.40;99.90;;;;;;5013447;28;20084;-85
2023/10/19 07:30:48;;;;;;;7.35;5.25;;;8.40;99.90;;;;;;5013405;28;20515;-82
2023/10/19 07:33:17;;;;;;;6.60;5.10;;;8.40;99.90;;;;;;5013490;28;20221;-83
2023/10/19 07:35:46;;;;;;;7.43;5.47;;;8.40;99.90;;;;;;5013572;28;20041;-82
2023/10/19 07:38:13;;;;;;;7.22;4.90;;;8.40;99.90;;;;;;5013194;28;20466;-83
2023/10/19 07:40:39;;;;;;;6.32;5.22;;;8.40;99.90;;;;;;5014325;28;20460;-82
2023/10/19 07:43:05;;;;;;;8.00;6.03;;;8.40;99.90;;;;;;5013156;28;20543;-84
2023/10/19 07:45:31;;;;;;;8.60;5.90;;;8.40;99.90;;;;;;5013144;28;20057;-82
2023/10/19 07:48:05;;;;;;;8.52;5.80;;;8.50;99.90;;;;;;5013374;28;20046;-84
2023/10/19 07:50:35;;;;;;;6.78;5.28;;;8.40;99.90;;;;;;5012936;28;20387;-83
2023/10/19 07:53:01;;;;;;;6.50;5.03;;;8.40;99.90;;;;;;5012933;28;20046;-83
2023/10/19 07:55:26;;;;;;;6.90;5.15;;;8.40;99.90;;;;;;5013182;28;20049;-82
2023/10/19 07:57:52;;;;;;;6.25;4.78;;;8.40;99.90;;;;;;5014467;28;20496;-84
2023/10/19 08:00:20;;;;;;;6.85;5.25;;;8.40;99.90;;;;;;5013052;28;20423;-84
2023/10/19 08:02:46;;;;;;;8.48;5.63;;;8.40;99.90;;;;;;5012866;28;20077;-82
2023/10/19 08:05:15;;;;;;;7.45;5.82;;;8.50;99.90;;;;;;5012658;28;20486;-84
2023/10/19 08:07:46;;;;;;;6.20;4.72;;;8.40;99.90;;;;;;5012956;28;20485;-84
2023/10/19 08:10:13;;;;;;;6.68;5.25;;;8.40;99.90;;;;;;5012987;28;20042;-83
2023/10/19 08:12:43;;;;;;;6.72;5.47;;;8.40;99.90;;;;;;5012693;28;20100;-83
2023/10/19 08:15:13;;;;;;;6.55;5.22;;;8.50;99.90;;;;;;5012619;28;20486;-84
2023/10/19 08:17:40;;;;;;;7.45;5.63;;;8.40;99.90;;;;;;5012411;28;20054;-84
2023/10/19 08:20:15;;;;;;;7.00;5.20;;;8.40;99.90;;;;;;5013232;28;20568;-82
2023/10/19 08:22:43;;;;;;;6.32;4.60;;;8.50;99.90;;;;;;5012476;28;20425;-85
2023/10/19 08:25:11;;;;;;;6.00;4.60;;;8.40;99.90;;;;;;5012477;28;20410;-84
2023/10/19 08:27:39;;;;;;;7.90;5.53;;;8.50;99.90;;;;;;5012331;28;20406;-83
2023/10/19 08:30:08;;;;;;;6.78;5.00;;;8.60;99.90;;;;;;5013827;28;20046;-83
2023/10/19 08:32:35;;;;;;;6.22;4.90;;;8.50;99.90;;;;;;5012342;28;20049;-84
2023/10/19 08:35:02;;;;;;;7.35;5.03;;;8.60;99.90;;;;;;5012239;28;20125;-84
2023/10/19 08:37:28;;;;;;;6.60;4.93;;;8.60;99.90;;;;;;5013623;28;20085;-83
2023/10/19 08:39:54;;;;;;;8.48;5.20;;;8.60;99.90;;;;;;5012292;28;20517;-83
2023/10/19 08:42:20;;;;;;;6.65;5.35;;;8.60;99.90;;;;;;5012413;28;20056;-84
2023/10/19 08:44:46;;;;;;;6.72;5.78;;;8.60;99.90;;;;;;5012278;28;20500;-84
2023/10/19 08:47:12;;;;;;;6.60;5.22;;;8.70;99.90;;;;;;5012193;28;20045;-84
2023/10/19 08:49:38;;;;;;;6.72;5.35;;;8.60;99.90;;;;;;5012469;28;20092;-85
2023/10/19 08:52:06;;;;;;;7.20;5.40;;;8.60;99.90;;;;;;5012231;28;20485;-85
2023/10/19 08:54:33;;;;;;;7.25;5.53;;;8.60;99.90;;;;;;5012444;28;20050;-85
2023/10/19 08:56:59;;;;;;;6.50;5.20;;;8.60;99.90;;;;;;5012046;28;20413;-84
2023/10/19 08:59:26;;;;;;;7.22;5.68;;;8.60;99.90;;;;;;5012133;28;20497;-84
2023/10/19 09:02:03;;;;;;;8.88;7.20;;;8.60;99.90;;;;;;5012478;28;20507;-83
2023/10/19 09:04:30;;;;;;;7.65;5.90;;;8.60;99.90;;;;;;5013327;28;20057;-84
2023/10/19 09:06:55;;;;;;;6.68;5.80;;;8.70;99.90;;;;;;5012044;28;20057;-84
2023/10/19 09:09:21;;;;;;;7.47;6.22;;;8.60;99.90;;;;;;5011943;28;20046;-83
2023/10/19 09:11:50;;;;;;;9.63;6.57;;;8.60;99.90;;;;;;5013074;28;20053;-85
2023/10/19 09:14:30;;;;;;;8.95;6.80;;;8.60;99.90;;;;;;5013118;28;20046;-84
2023/10/19 09:16:57;;;;;;;8.50;6.35;;;8.60;99.90;;;;;;5011984;28;20346;-84
2023/10/19 09:19:43;;;;;;;6.93;5.95;;;8.60;99.90;;;;;;5012045;28;20061;-82
2023/10/19 09:22:18;;;;;;;8.07;5.95;;;8.70;99.90;;;;;;5011867;28;20057;-86
2023/10/19 09:24:45;;;;;;;7.10;5.95;;;8.70;99.90;;;;;;5011845;28;20057;-90
2023/10/19 09:27:12;;;;;;;7.45;6.30;;;8.70;99.90;;;;;;5012095;28;20054;-86
2023/10/19 09:29:39;;;;;;;10.27;7.00;;;8.70;99.90;;;;;;5012169;28;20490;-86
2023/10/19 09:32:06;;;;;;;9.10;7.00;;;8.70;99.90;;;;;;5011903;28;20087;-86
2023/10/19 09:34:33;;;;;;;9.80;7.07;;;8.70;99.90;;;;;;5015951;28;20053;-85
2023/10/19 09:37:03;;;;;;;8.93;6.90;;;8.80;99.90;;;;;;5016692;28;20535;-84
2023/10/19 09:39:35;;;;;;;8.27;6.15;;;8.70;99.90;;;;;;5015762;28;20054;-85
2023/10/19 09:42:11;;;;;;;8.10;6.68;;;8.80;99.90;;;;;;5015651;28;20050;-85
2023/10/19 09:44:45;;;;;;;7.75;6.47;;;8.80;99.90;;;;;;5015314;28;20046;-86
2023/10/19 09:47:14;;;;;;;8.85;7.07;;;8.80;99.90;;;;;;5015222;28;20125;-86
2023/10/19 09:49:42;;;;;;;9.57;7.78;;;8.80;99.90;;;;;;5015127;28;20057;-88
2023/10/19 09:52:09;;;;;;;9.63;7.50;;;8.80;99.90;;;;;;5015265;28;20103;-77
2023/10/19 09:55:01;;;;;;;9.90;7.53;;;8.80;99.90;;;;;;5015442;28;20045;-86
2023/10/19 09:57:34;;;;;;;8.52;7.38;;;8.70;99.90;;;;;;5013992;28;20052;-84
2023/10/19 10:00:09;;;;;;;;;;;8.80;99.90;;;;;;5015465;28;20089;-90
2023/10/19 10:02:35;;;;;;;9.80;6.72;;;8.80;99.90;;;;;;5015505;28;19922;-87
2023/10/19 10:05:01;;;;;;;9.10;7.00;;;8.80;99.90;;;;;;5014696;28;20069;-87
2023/10/19 10:07:27;;;;;;;9.32;7.35;;;8.90;99.90;;;;;;5016265;28;20085;-89
2023/10/19 10:09:54;;;;;;;8.45;7.20;;;8.80;99.90;;;;;;5015373;28;20048;-83
2023/10/19 10:12:25;;;;;;;9.43;7.35;;;8.80;99.90;;;;;;5014861;28;20081;-87
2023/10/19 10:15:01;;;;;;;10.75;7.72;;;8.90;99.90;;;;;;5014932;28;20086;-85
2023/10/19 10:17:28;;;;;;;10.32;8.73;;;8.90;99.90;;;;;;5014743;28;20100;-88
2023/10/19 10:19:56;;;;;;;14.55;10.80;;;8.90;99.90;;;;;;5014623;28;20046;-86
2023/10/19 10:22:22;;;;;;;12.13;9.63;;;8.90;99.90;;;;;;5015005;28;20053;-87
2023/10/19 10:24:55;;;;;;;16.73;11.70;;;8.90;99.90;;;;;;5014748;28;20490;-91
2023/10/19 10:27:21;;;;;;;13.98;11.40;;;8.90;99.90;;;;;;5014789;28;20082;-88
2023/10/19 10:30:05;;;;;;;14.48;11.88;;;8.90;99.90;;;;;;5014719;28;20125;-85
2023/10/19 10:32:55;;;;;;;15.88;11.93;;;8.90;99.90;;;;;;5014872;28;20060;-84
2023/10/19 10:35:36;;;;;;;17.15;13.50;;;8.90;99.90;;;;;;5014405;28;20046;-84
2023/10/19 10:38:05;;;;;;;20.00;13.65;;;8.90;99.90;;;;;;5014398;28;20127;-87
2023/10/19 10:40:31;;;;;;;17.73;12.85;;;9.00;99.90;;;;;;5015664;28;20046;-90
2023/10/19 10:43:07;;;;;;;17.65;12.05;;;9.00;99.90;;;;;;5014235;28;20053;-86
2023/10/19 10:45:33;;;;;;;15.68;11.73;;;9.00;99.90;;;;;;5015547;28;20529;-87
2023/10/19 10:48:00;;;;;;;15.00;11.68;;;8.90;99.90;;;;;;5014264;28;20140;-84
2023/10/19 10:50:28;;;;;;;20.35;12.02;;;9.00;99.90;;;;;;5014365;28;20061;-82
2023/10/19 10:52:57;;;;;;;13.38;9.82;;;9.00;99.90;;;;;;5014556;28;20065;-87
2023/10/19 10:55:25;;;;;;;15.27;9.95;;;9.00;99.90;;;;;;5014290;28;20061;-84
2023/10/19 10:57:51;;;;;;;11.60;8.15;;;8.90;99.90;;;;;;5014338;28;20041;-84
2023/10/19 11:00:20;;;;;;;12.70;8.10;;;9.00;99.90;;;;;;5014141;28;20065;-88
2023/10/19 11:03:00;;;;;;;10.15;7.38;;;9.00;99.90;;;;;;5014303;28;20053;-88
2023/10/19 11:05:25;;;;;;;11.05;7.22;;;9.00;99.90;;;;;;5013844;28;20052;-89
2023/10/19 11:08:15;;;;;;;9.65;7.10;;;9.00;99.90;;;;;;5014105;28;20050;-86
2023/10/19 11:10:44;;;;;;;10.85;7.13;;;9.00;99.90;;;;;;5014060;28;20489;-86
2023/10/19 11:13:17;;;;;;;9.40;6.68;;;9.00;99.90;;;;;;5013945;28;20470;-83
2023/10/19 11:16:05;;;;;;;11.27;6.60;;;9.10;99.90;;;;;;5013561;28;20422;-86
2023/10/19 11:18:39;;;;;;;10.05;7.07;;;9.10;99.90;;;;;;5013519;28;20054;-85
2023/10/19 11:21:10;;;;;;;9.82;7.40;;;9.10;99.90;;;;;;5013606;28;20061;-86
2023/10/19 11:23:43;;;;;;;15.35;9.73;;;9.10;99.90;;;;;;5013485;28;20049;-84
2023/10/19 11:26:12;;;;;;;;;;;9.10;99.90;;;;;;5013748;28;20559;-83
2023/10/19 11:28:53;;;;;;;16.33;9.70;;;9.10;99.90;;;;;;5013441;28;20364;-85
2023/10/19 11:31:22;;;;;;;16.50;11.38;;;9.10;99.90;;;;;;5013421;28;20046;-83
2023/10/19 11:33:49;;;;;;;15.93;11.18;;;9.10;99.90;;;;;;5014466;28;20049;-85
2023/10/19 11:36:16;;;;;;;16.83;10.20;;;9.10;99.90;;;;;;5013261;28;20379;-85
2023/10/19 11:38:43;;;;;;;14.13;8.82;;;9.10;99.90;;;;;;5013349;28;20073;-88
2023/10/19 11:41:10;;;;;;;10.25;7.53;;;9.10;99.90;;;;;;5013452;28;20498;-90
2023/10/19 11:43:36;;;;;;;10.98;6.25;;;9.20;99.90;;;;;;5013264;28;20449;-87
2023/10/19 11:46:04;;;;;;;11.40;6.72;;;9.10;99.90;;;;;;5013131;28;20103;-88
2023/10/19 11:48:31;;;;;;;10.52;6.60;;;9.10;99.90;;;;;;5013285;28;20046;-88
2023/10/19 11:50:57;;;;;;;9.80;6.18;;;9.20;99.90;;;;;;5013378;28;20136;-88
2023/10/19 11:53:23;;;;;;;10.80;6.65;;;9.20;99.90;;;;;;5013304;28;20180;-88
2023/10/19 11:55:49;;;;;;;10.38;6.40;;;9.20;99.90;;;;;;5012313;28;20045;-88
2023/10/19 11:58:15;;;;;;;9.77;6.22;;;9.20;99.90;;;;;;5013084;28;20074;-85
2023/10/19 12:00:43;;;;;;;9.50;5.78;;;9.10;99.90;;;;;;5013189;28;20132;-85
2023/10/19 12:03:10;;;;;;;9.10;5.90;;;9.20;99.90;;;;;;5012652;28;20054;-84
2023/10/19 12:05:37;;;;;;;8.80;4.70;;;9.10;99.90;;;;;;5012947;28;20088;-86
2023/10/19 12:08:03;;;;;;;9.30;5.82;;;9.20;99.90;;;;;;5014200;28;20061;-86
2023/10/19 12:10:35;;;;;;;8.98;5.60;;;9.20;99.90;;;;;;5012677;28;20075;-85
2023/10/19 12:13:08;;;;;;;11.32;5.53;;;9.20;99.90;;;;;;5012913;28;20042;-86
2023/10/19 12:15:34;;;;;;;8.38;5.30;;;9.20;99.90;;;;;;5013613;28;20099;-85
2023/10/19 12:18:00;;;;;;;9.70;5.47;;;9.20;99.90;;;;;;5012802;28;20057;-84
2023/10/19 12:20:26;;;;;;;10.70;5.35;;;9.20;99.90;;;;;;5012796;28;20034;-85
2023/10/19 12:22:53;;;;;;;8.73;4.82;;;9.20;99.90;;;;;;5012779;28;20060;-85
2023/10/19 12:25:21;;;;;;;7.10;4.68;;;9.20;99.90;;;;;;5014062;28;20054;-86
2023/10/19 12:27:46;;;;;;;7.50;4.65;;;9.20;99.90;;;;;;5012559;28;20057;-86
2023/10/19 12:30:22;;;;;;;7.63;5.18;;;9.10;99.90;;;;;;5012439;28;20053;-85
2023/10/19 12:32:51;;;;;;;7.28;4.93;;;9.10;99.90;;;;;;5013121;28;20053;-86
2023/10/19 12:35:19;;;;;;;7.20;3.97;;;9.10;99.90;;;;;;5013800;28;20080;-84
2023/10/19 12:37:46;;;;;;;7.60;5.13;;;9.10;99.90;;;;;;5012601;28;20050;-84
2023/10/19 12:40:26;;;;;;;7.57;5.00;;;9.20;99.90;;;;;;5012449;28;20512;-89
2023/10/19 12:42:54;;;;;;;8.07;5.57;;;9.10;99.90;;;;;;5012416;28;20049;-91
2023/10/19 12:45:24;;;;;;;9.82;6.05;;;9.00;99.90;;;;;;5013663;28;20053;-86
2023/10/19 12:47:51;;;;;;;10.15;5.53;;;9.00;99.90;;;;;;5012257;28;20135;-87
2023/10/19 12:50:22;;;;;;;8.30;4.55;;;9.00;99.90;;;;;;5012458;28;20174;-85
2023/10/19 12:52:49;;;;;;;11.20;5.70;;;9.00;99.90;;;;;;5012774;28;20054;-86
2023/10/19 12:55:16;;;;;;;8.93;5.00;;;9.00;99.90;;;;;;5012588;28;20046;-85
2023/10/19 12:57:42;;;;;;;8.77;4.78;;;9.00;99.90;;;;;;5012274;28;20044;-84
2023/10/19 13:00:29;;;;;;;7.45;4.70;;;9.00;99.90;;;;;;5012384;28;20125;-87
2023/10/19 13:03:03;;;;;;;8.00;4.90;;;9.00;99.90;;;;;;5012667;28;20528;-85
2023/10/19 13:05:36;;;;;;;10.60;5.78;;;9.00;99.90;;;;;;5013428;28;20513;-84
2023/10/19 13:08:05;;;;;;;8.10;4.80;;;9.10;99.90;;;;;;5016810;28;20045;-85
2023/10/19 13:10:35;;;;;;;7.50;4.47;;;9.10;99.90;;;;;;5016508;28;20045;-86
2023/10/19 13:13:05;;;;;;;7.03;4.68;;;9.00;99.90;;;;;;5016172;28;20492;-86
2023/10/19 13:15:36;;;;;;;9.35;5.32;;;9.00;99.90;;;;;;5016017;28;20053;-87
2023/10/19 13:18:03;;;;;;;7.80;5.22;;;9.00;99.90;;;;;;5017073;28;20140;-87
2023/10/19 13:20:36;;;;;;;7.18;4.50;;;9.00;99.90;;;;;;5016037;28;20050;-91
2023/10/19 13:23:11;;;;;;;10.85;5.28;;;9.00;99.90;;;;;;5016177;28;20054;-86
2023/10/19 13:25:47;;;;;;;7.50;4.60;;;9.10;99.90;;;;;;5017241;28;20493;-88
2023/10/19 13:28:14;;;;;;;7.95;4.70;;;9.10;99.90;;;;;;5015831;28;20046;-86